sensor_id;sensor_type;location;lat;lon;timestamp;temperature;humidity
32811;DHT22;65470;47.324;8.548;2023-07-13T00:00:12;20.40;99.90
32811;DHT22;65470;47.324;8.548;2023-07-13T00:02:41;20.40;99.90
32811;DHT22;65470;47.324;8.548;2023-07-13T00:05:07;20.30;99.90
32811;DHT22;65470;47.324;8.548;2023-07-13T00:07:32;20.20;99.90
32811;DHT22;65470;47.324;8.548;2023-07-13T00:09:58;20.20;99.90
32811;DHT22;65470;47.324;8.548;2023-07-13T00:12:30;20.10;99.90
32811;DHT22;65470;47.324;8.548;2023-07-13T00:15:00;20.00;99.90
32811;DHT22;65470;47.324;8.548;2023-07-13T00:17:27;20.00;99.90
32811;DHT22;65470;47.324;8.548;2023-07-13T00:19:54;20.00;99.90
32811;DHT22;65470;47.324;8.548;2023-07-13T00:22:21;19.90;99.90
32811;DHT22;65470;47.324;8.548;2023-07-13T00:24:47;19.90;99.90
32811;DHT22;65470;47.324;8.548;2023-07-13T00:27:13;19.90;99.90
32811;DHT22;65470;47.324;8.548;2023-07-13T00:29:39;19.90;99.90
32811;DHT22;65470;47.324;8.548;2023-07-13T00:32:06;19.90;99.90
32811;DHT22;65470;47.324;8.548;2023-07-13T00:34:32;19.90;99.90
32811;DHT22;65470;47.324;8.548;2023-07-13T00:36:58;19.90;99.90
32811;DHT22;65470;47.324;8.548;2023-07-13T00:39:24;19.90;99.90
32811;DHT22;65470;47.324;8.548;2023-07-13T00:41:50;19.90;99.90
32811;DHT22;65470;47.324;8.548;2023-07-13T00:44:18;19.90;99.90
32811;DHT22;65470;47.324;8.548;2023-07-13T00:46:44;19.90;99.90
32811;DHT22;65470;47.324;8.548;2023-07-13T00:49:14;19.90;99.90
32811;DHT22;65470;47.324;8.548;2023-07-13T00:51:49;20.00;99.90
32811;DHT22;65470;47.324;8.548;2023-07-13T00:54:18;19.90;99.90
32811;DHT22;65470;47.324;8.548;2023-07-13T00:56:48;19.90;99.90
32811;DHT22;65470;47.324;8.548;2023-07-13T00:59:16;19.90;99.90
32811;DHT22;65470;47.324;8.548;2023-07-13T01:01:43;20.00;99.90
32811;DHT22;65470;47.324;8.548;2023-07-13T01:04:09;20.00;99.90
32811;DHT22;65470;47.324;8.548;2023-07-13T01:06:36;19.90;99.90
32811;DHT22;65470;47.324;8.548;2023-07-13T01:09:02;19.90;99.90
32811;DHT22;65470;47.324;8.548;2023-07-13T01:11:28;19.90;99.90
32811;DHT22;65470;47.324;8.548;2023-07-13T01:13:54;19.80;99.90
32811;DHT22;65470;47.324;8.548;2023-07-13T01:16:25;19.90;99.90
32811;DHT22;65470;47.324;8.548;2023-07-13T01:18:51;19.90;99.90
32811;DHT22;65470;47.324;8.548;2023-07-13T01:21:17;19.90;99.90
32811;DHT22;65470;47.324;8.548;2023-07-13T01:23:44;19.80;99.90
32811;DHT22;65470;47.324;8.548;2023-07-13T01:26:10;19.80;99.90
32811;DHT22;65470;47.324;8.548;2023-07-13T01:28:37;19.80;99.90
32811;DHT22;65470;47.324;8.548;2023-07-13T01:31:03;19.80;99.90
32811;DHT22;65470;47.324;8.548;2023-07-13T01:33:29;19.80;99.90
32811;DHT22;65470;47.324;8.548;2023-07-13T01:35:55;19.80;99.90
32811;DHT22;65470;47.324;8.548;2023-07-13T01:38:23;19.80;99.90
32811;DHT22;65470;47.324;8.548;2023-07-13T01:40:50;19.90;99.90
32811;DHT22;65470;47.324;8.548;2023-07-13T01:43:16;19.90;99.90
32811;DHT22;65470;47.324;8.548;2023-07-13T01:45:42;19.80;99.90
32811;DHT22;65470;47.324;8.548;2023-07-13T01:48:09;19.80;99.90
32811;DHT22;65470;47.324;8.548;2023-07-13T01:50:35;19.80;99.90
32811;DHT22;65470;47.324;8.548;2023-07-13T01:53:01;19.80;99.90
32811;DHT22;65470;47.324;8.548;2023-07-13T01:55:27;19.80;99.90
32811;DHT22;65470;47.324;8.548;2023-07-13T01:57:53;19.80;99.90
32811;DHT22;65470;47.324;8.548;2023-07-13T02:03:41;19.80;99.90
32811;DHT22;65470;47.324;8.548;2023-07-13T02:06:07;19.80;99.90
32811;DHT22;65470;47.324;8.548;2023-07-13T02:08:33;19.80;99.90
32811;DHT22;65470;47.324;8.548;2023-07-13T02:11:00;19.80;99.90
32811;DHT22;65470;47.324;8.548;2023-07-13T02:13:25;19.80;99.90
32811;DHT22;65470;47.324;8.548;2023-07-13T02:15:51;19.80;99.90
32811;DHT22;65470;47.324;8.548;2023-07-13T02:18:17;19.80;99.90
32811;DHT22;65470;47.324;8.548;2023-07-13T02:20:43;19.80;99.90
32811;DHT22;65470;47.324;8.548;2023-07-13T02:23:09;19.90;99.90
32811;DHT22;65470;47.324;8.548;2023-07-13T02:25:35;19.90;99.90
32811;DHT22;65470;47.324;8.548;2023-07-13T02:28:01;19.80;99.90
32811;DHT22;65470;47.324;8.548;2023-07-13T02:30:27;19.80;99.90
32811;DHT22;65470;47.324;8.548;2023-07-13T02:32:55;19.80;99.90
32811;DHT22;65470;47.324;8.548;2023-07-13T02:35:21;19.70;99.90
32811;DHT22;65470;47.324;8.548;2023-07-13T02:37:47;19.70;99.90
32811;DHT22;65470;47.324;8.548;2023-07-13T02:40:12;19.70;99.90
32811;DHT22;65470;47.324;8.548;2023-07-13T02:42:39;19.70;99.90
32811;DHT22;65470;47.324;8.548;2023-07-13T02:45:06;19.80;99.90
32811;DHT22;65470;47.324;8.548;2023-07-13T02:47:32;19.80;99.90
32811;DHT22;65470;47.324;8.548;2023-07-13T02:49:58;19.80;99.90
32811;DHT22;65470;47.324;8.548;2023-07-13T02:52:25;19.80;99.90
32811;DHT22;65470;47.324;8.548;2023-07-13T02:54:50;19.90;99.90
32811;DHT22;65470;47.324;8.548;2023-07-13T02:57:16;19.80;99.90
32811;DHT22;65470;47.324;8.548;2023-07-13T02:59:42;19.80;99.90
32811;DHT22;65470;47.324;8.548;2023-07-13T03:02:08;19.70;99.90
32811;DHT22;65470;47.324;8.548;2023-07-13T03:04:36;19.70;99.90
32811;DHT22;65470;47.324;8.548;2023-07-13T03:07:02;19.80;99.90
32811;DHT22;65470;47.324;8.548;2023-07-13T03:09:28;19.80;99.90
32811;DHT22;65470;47.324;8.548;2023-07-13T03:11:54;19.80;99.90
32811;DHT22;65470;47.324;8.548;2023-07-13T03:14:23;19.90;99.90
32811;DHT22;65470;47.324;8.548;2023-07-13T03:16:49;19.90;99.90
32811;DHT22;65470;47.324;8.548;2023-07-13T03:19:15;19.80;99.90
32811;DHT22;65470;47.324;8.548;2023-07-13T03:21:40;19.80;99.90
32811;DHT22;65470;47.324;8.548;2023-07-13T03:24:06;19.80;99.90
32811;DHT22;65470;47.324;8.548;2023-07-13T03:26:32;19.80;99.90
32811;DHT22;65470;47.324;8.548;2023-07-13T03:28:57;19.80;99.90
32811;DHT22;65470;47.324;8.548;2023-07-13T03:31:27;19.80;99.90
32811;DHT22;65470;47.324;8.548;2023-07-13T03:33:54;19.80;99.90
32811;DHT22;65470;47.324;8.548;2023-07-13T03:36:22;19.70;99.90
32811;DHT22;65470;47.324;8.548;2023-07-13T03:38:51;19.70;99.90
32811;DHT22;65470;47.324;8.548;2023-07-13T03:41:18;19.80;99.90
32811;DHT22;65470;47.324;8.548;2023-07-13T03:43:44;19.80;99.90
32811;DHT22;65470;47.324;8.548;2023-07-13T03:46:10;19.70;99.90
32811;DHT22;65470;47.324;8.548;2023-07-13T03:48:36;19.60;99.90
32811;DHT22;65470;47.324;8.548;2023-07-13T03:51:02;19.60;99.90
32811;DHT22;65470;47.324;8.548;2023-07-13T03:53:27;19.50;99.90
32811;DHT22;65470;47.324;8.548;2023-07-13T03:55:53;19.50;99.90
32811;DHT22;65470;47.324;8.548;2023-07-13T03:58:35;19.50;99.90
32811;DHT22;65470;47.324;8.548;2023-07-13T04:01:03;19.50;99.90
32811;DHT22;65470;47.324;8.548;2023-07-13T04:03:29;19.50;99.90
32811;DHT22;65470;47.324;8.548;2023-07-13T04:05:55;19.40;99.90
32811;DHT22;65470;47.324;8.548;2023-07-13T04:08:32;19.50;99.90
32811;DHT22;65470;47.324;8.548;2023-07-13T04:10:59;19.50;99.90
32811;DHT22;65470;47.324;8.548;2023-07-13T04:13:25;19.60;99.90
32811;DHT22;65470;47.324;8.548;2023-07-13T04:15:51;19.60;99.90
32811;DHT22;65470;47.324;8.548;2023-07-13T04:18:16;19.60;99.90
32811;DHT22;65470;47.324;8.548;2023-07-13T04:20:42;19.70;99.90
32811;DHT22;65470;47.324;8.548;2023-07-13T04:23:07;19.70;99.90
32811;DHT22;65470;47.324;8.548;2023-07-13T04:25:33;19.80;99.90
32811;DHT22;65470;47.324;8.548;2023-07-13T04:27:59;19.80;99.90
32811;DHT22;65470;47.324;8.548;2023-07-13T04:30:25;19.80;99.90
32811;DHT22;65470;47.324;8.548;2023-07-13T04:32:52;19.90;99.90
32811;DHT22;65470;47.324;8.548;2023-07-13T04:35:19;19.90;99.90
32811;DHT22;65470;47.324;8.548;2023-07-13T04:37:46;19.90;99.90
32811;DHT22;65470;47.324;8.548;2023-07-13T04:40:13;19.90;99.90
32811;DHT22;65470;47.324;8.548;2023-07-13T04:42:38;19.90;99.90
32811;DHT22;65470;47.324;8.548;2023-07-13T04:45:06;19.90;99.90
32811;DHT22;65470;47.324;8.548;2023-07-13T04:47:32;19.90;99.90
32811;DHT22;65470;47.324;8.548;2023-07-13T04:49:58;19.90;99.90
32811;DHT22;65470;47.324;8.548;2023-07-13T04:52:24;19.90;99.90
32811;DHT22;65470;47.324;8.548;2023-07-13T04:54:50;20.00;99.90
32811;DHT22;65470;47.324;8.548;2023-07-13T04:57:15;20.00;99.90
32811;DHT22;65470;47.324;8.548;2023-07-13T04:59:41;20.00;99.90
32811;DHT22;65470;47.324;8.548;2023-07-13T05:02:07;20.10;99.90
32811;DHT22;65470;47.324;8.548;2023-07-13T05:04:33;20.10;99.90
32811;DHT22;65470;47.324;8.548;2023-07-13T05:06:59;20.20;99.90
32811;DHT22;65470;47.324;8.548;2023-07-13T05:09:25;20.30;99.90
32811;DHT22;65470;47.324;8.548;2023-07-13T05:11:51;20.40;99.90
32811;DHT22;65470;47.324;8.548;2023-07-13T05:14:16;20.40;99.90
32811;DHT22;65470;47.324;8.548;2023-07-13T05:16:42;20.50;99.90
32811;DHT22;65470;47.324;8.548;2023-07-13T05:19:08;20.50;99.90
32811;DHT22;65470;47.324;8.548;2023-07-13T05:21:34;20.50;99.90
32811;DHT22;65470;47.324;8.548;2023-07-13T05:24:00;20.50;99.90
32811;DHT22;65470;47.324;8.548;2023-07-13T05:26:25;20.50;99.90
32811;DHT22;65470;47.324;8.548;2023-07-13T05:28:51;20.40;99.90
32811;DHT22;65470;47.324;8.548;2023-07-13T05:31:16;20.30;99.90
32811;DHT22;65470;47.324;8.548;2023-07-13T05:33:42;20.30;99.90
32811;DHT22;65470;47.324;8.548;2023-07-13T05:36:08;20.30;99.90
32811;DHT22;65470;47.324;8.548;2023-07-13T05:38:34;20.20;99.90
32811;DHT22;65470;47.324;8.548;2023-07-13T05:41:00;20.20;99.90
32811;DHT22;65470;47.324;8.548;2023-07-13T05:43:26;20.20;99.90
32811;DHT22;65470;47.324;8.548;2023-07-13T05:45:56;20.20;99.90
32811;DHT22;65470;47.324;8.548;2023-07-13T05:48:22;20.10;99.90
32811;DHT22;65470;47.324;8.548;2023-07-13T05:50:48;20.10;99.90
32811;DHT22;65470;47.324;8.548;2023-07-13T05:53:15;20.10;99.90
32811;DHT22;65470;47.324;8.548;2023-07-13T05:55:45;20.00;99.90
32811;DHT22;65470;47.324;8.548;2023-07-13T05:58:17;19.90;99.90
32811;DHT22;65470;47.324;8.548;2023-07-13T06:00:42;20.00;99.90
32811;DHT22;65470;47.324;8.548;2023-07-13T06:03:08;20.00;99.90
32811;DHT22;65470;47.324;8.548;2023-07-13T06:05:35;19.90;99.90
32811;DHT22;65470;47.324;8.548;2023-07-13T06:08:02;20.00;99.90
32811;DHT22;65470;47.324;8.548;2023-07-13T06:10:28;20.00;99.90
32811;DHT22;65470;47.324;8.548;2023-07-13T06:12:53;20.00;99.90
32811;DHT22;65470;47.324;8.548;2023-07-13T06:15:19;19.90;99.90
32811;DHT22;65470;47.324;8.548;2023-07-13T06:17:44;19.90;99.90
32811;DHT22;65470;47.324;8.548;2023-07-13T06:20:10;20.00;99.90
32811;DHT22;65470;47.324;8.548;2023-07-13T06:22:36;20.10;99.90
32811;DHT22;65470;47.324;8.548;2023-07-13T06:25:02;20.10;99.90
32811;DHT22;65470;47.324;8.548;2023-07-13T06:27:28;20.10;99.90
32811;DHT22;65470;47.324;8.548;2023-07-13T06:29:53;20.30;99.90
32811;DHT22;65470;47.324;8.548;2023-07-13T06:32:20;20.30;99.90
32811;DHT22;65470;47.324;8.548;2023-07-13T06:34:46;20.40;99.90
32811;DHT22;65470;47.324;8.548;2023-07-13T06:37:11;20.50;99.90
32811;DHT22;65470;47.324;8.548;2023-07-13T06:39:37;20.50;99.90
32811;DHT22;65470;47.324;8.548;2023-07-13T06:42:02;20.50;99.90
32811;DHT22;65470;47.324;8.548;2023-07-13T06:44:28;20.50;99.90
32811;DHT22;65470;47.324;8.548;2023-07-13T06:46:54;20.50;99.90
32811;DHT22;65470;47.324;8.548;2023-07-13T06:49:19;20.30;99.90
32811;DHT22;65470;47.324;8.548;2023-07-13T06:51:45;20.20;99.90
32811;DHT22;65470;47.324;8.548;2023-07-13T06:54:10;20.20;99.90
32811;DHT22;65470;47.324;8.548;2023-07-13T06:56:36;20.30;99.90
32811;DHT22;65470;47.324;8.548;2023-07-13T06:59:02;20.40;99.90
32811;DHT22;65470;47.324;8.548;2023-07-13T07:01:27;20.60;99.90
32811;DHT22;65470;47.324;8.548;2023-07-13T07:03:53;20.60;99.90
32811;DHT22;65470;47.324;8.548;2023-07-13T07:06:21;20.60;99.90
32811;DHT22;65470;47.324;8.548;2023-07-13T07:08:49;20.70;99.90
32811;DHT22;65470;47.324;8.548;2023-07-13T07:11:24;20.80;99.90
32811;DHT22;65470;47.324;8.548;2023-07-13T07:13:51;20.80;99.90
32811;DHT22;65470;47.324;8.548;2023-07-13T07:16:17;20.70;99.90
32811;DHT22;65470;47.324;8.548;2023-07-13T07:18:42;20.80;99.90
32811;DHT22;65470;47.324;8.548;2023-07-13T07:21:08;20.80;99.90
32811;DHT22;65470;47.324;8.548;2023-07-13T07:23:34;21.00;99.90
32811;DHT22;65470;47.324;8.548;2023-07-13T07:26:00;21.30;99.90
32811;DHT22;65470;47.324;8.548;2023-07-13T07:28:26;21.60;99.90
32811;DHT22;65470;47.324;8.548;2023-07-13T07:30:55;21.70;99.90
32811;DHT22;65470;47.324;8.548;2023-07-13T07:33:21;22.00;99.90
32811;DHT22;65470;47.324;8.548;2023-07-13T07:35:46;22.20;99.90
32811;DHT22;65470;47.324;8.548;2023-07-13T07:38:12;22.30;99.90
32811;DHT22;65470;47.324;8.548;2023-07-13T07:40:39;22.40;99.90
32811;DHT22;65470;47.324;8.548;2023-07-13T07:43:06;22.70;99.90
32811;DHT22;65470;47.324;8.548;2023-07-13T07:45:32;22.90;99.90
32811;DHT22;65470;47.324;8.548;2023-07-13T07:47:58;23.00;99.90
32811;DHT22;65470;47.324;8.548;2023-07-13T07:50:25;23.10;99.90
32811;DHT22;65470;47.324;8.548;2023-07-13T07:52:51;23.30;99.90
32811;DHT22;65470;47.324;8.548;2023-07-13T07:55:17;23.40;99.90
32811;DHT22;65470;47.324;8.548;2023-07-13T07:57:43;23.50;99.90
32811;DHT22;65470;47.324;8.548;2023-07-13T08:00:09;23.50;99.90
32811;DHT22;65470;47.324;8.548;2023-07-13T08:02:35;23.60;99.90
32811;DHT22;65470;47.324;8.548;2023-07-13T08:05:00;23.50;99.90
32811;DHT22;65470;47.324;8.548;2023-07-13T08:07:26;23.30;99.90
32811;DHT22;65470;47.324;8.548;2023-07-13T08:09:54;23.50;99.90
32811;DHT22;65470;47.324;8.548;2023-07-13T08:12:20;23.70;99.90
32811;DHT22;65470;47.324;8.548;2023-07-13T08:14:49;24.00;99.90
32811;DHT22;65470;47.324;8.548;2023-07-13T08:17:14;23.70;99.90
32811;DHT22;65470;47.324;8.548;2023-07-13T08:19:40;23.60;99.90
32811;DHT22;65470;47.324;8.548;2023-07-13T08:22:06;23.80;99.90
32811;DHT22;65470;47.324;8.548;2023-07-13T08:24:31;24.00;99.90
32811;DHT22;65470;47.324;8.548;2023-07-13T08:26:57;24.30;99.90
32811;DHT22;65470;47.324;8.548;2023-07-13T08:29:23;24.60;99.90
32811;DHT22;65470;47.324;8.548;2023-07-13T08:31:48;24.90;99.90
32811;DHT22;65470;47.324;8.548;2023-07-13T08:34:14;25.00;99.90
32811;DHT22;65470;47.324;8.548;2023-07-13T08:36:40;25.40;99.90
32811;DHT22;65470;47.324;8.548;2023-07-13T08:39:06;25.50;99.90
32811;DHT22;65470;47.324;8.548;2023-07-13T08:41:32;25.60;99.90
32811;DHT22;65470;47.324;8.548;2023-07-13T08:43:59;25.80;99.90
32811;DHT22;65470;47.324;8.548;2023-07-13T08:46:33;25.90;99.90
32811;DHT22;65470;47.324;8.548;2023-07-13T08:49:07;26.40;99.90
32811;DHT22;65470;47.324;8.548;2023-07-13T08:51:48;27.10;99.90
32811;DHT22;65470;47.324;8.548;2023-07-13T08:56:50;27.60;99.90
32811;DHT22;65470;47.324;8.548;2023-07-13T08:59:20;28.00;99.90
32811;DHT22;65470;47.324;8.548;2023-07-13T09:04:39;27.80;99.90
32811;DHT22;65470;47.324;8.548;2023-07-13T09:07:28;27.50;99.90
32811;DHT22;65470;47.324;8.548;2023-07-13T09:15:34;26.50;99.90
32811;DHT22;65470;47.324;8.548;2023-07-13T09:18:26;26.30;99.90
32811;DHT22;65470;47.324;8.548;2023-07-13T09:20:56;25.90;99.90
32811;DHT22;65470;47.324;8.548;2023-07-13T09:23:26;25.90;99.90
32811;DHT22;65470;47.324;8.548;2023-07-13T09:25:58;25.80;99.90
32811;DHT22;65470;47.324;8.548;2023-07-13T09:28:27;25.70;99.90
32811;DHT22;65470;47.324;8.548;2023-07-13T09:31:02;25.30;99.90
32811;DHT22;65470;47.324;8.548;2023-07-13T09:33:28;25.20;99.90
32811;DHT22;65470;47.324;8.548;2023-07-13T09:35:57;25.10;99.90
32811;DHT22;65470;47.324;8.548;2023-07-13T09:38:26;25.10;99.90
32811;DHT22;65470;47.324;8.548;2023-07-13T09:43:36;25.00;99.90
32811;DHT22;65470;47.324;8.548;2023-07-13T09:46:02;24.90;99.90
32811;DHT22;65470;47.324;8.548;2023-07-13T09:48:35;24.90;99.90
32811;DHT22;65470;47.324;8.548;2023-07-13T09:51:13;25.00;99.90
32811;DHT22;65470;47.324;8.548;2023-07-13T09:53:42;25.20;99.90
32811;DHT22;65470;47.324;8.548;2023-07-13T09:56:22;25.50;99.90
32811;DHT22;65470;47.324;8.548;2023-07-13T09:58:49;25.60;99.90
32811;DHT22;65470;47.324;8.548;2023-07-13T10:01:14;25.50;99.90
32811;DHT22;65470;47.324;8.548;2023-07-13T10:03:52;25.70;99.90
32811;DHT22;65470;47.324;8.548;2023-07-13T10:06:20;26.00;99.90
32811;DHT22;65470;47.324;8.548;2023-07-13T10:08:50;26.20;99.90
32811;DHT22;65470;47.324;8.548;2023-07-13T10:11:24;26.20;99.90
32811;DHT22;65470;47.324;8.548;2023-07-13T10:14:15;26.10;99.90
32811;DHT22;65470;47.324;8.548;2023-07-13T10:16:43;26.00;99.90
32811;DHT22;65470;47.324;8.548;2023-07-13T10:19:19;25.80;99.90
32811;DHT22;65470;47.324;8.548;2023-07-13T10:21:57;25.80;99.90
32811;DHT22;65470;47.324;8.548;2023-07-13T10:24:27;26.00;99.90
32811;DHT22;65470;47.324;8.548;2023-07-13T10:29:48;26.20;99.90
32811;DHT22;65470;47.324;8.548;2023-07-13T10:32:20;25.80;99.90
32811;DHT22;65470;47.324;8.548;2023-07-13T10:34:48;25.50;99.90
32811;DHT22;65470;47.324;8.548;2023-07-13T10:37:49;25.50;99.90
32811;DHT22;65470;47.324;8.548;2023-07-13T10:40:22;25.90;99.90
32811;DHT22;65470;47.324;8.548;2023-07-13T10:42:51;26.20;99.90
32811;DHT22;65470;47.324;8.548;2023-07-13T10:45:20;26.60;99.90
32811;DHT22;65470;47.324;8.548;2023-07-13T10:47:47;27.60;99.90
32811;DHT22;65470;47.324;8.548;2023-07-13T10:50:25;27.70;99.90
32811;DHT22;65470;47.324;8.548;2023-07-13T10:53:00;28.10;99.90
32811;DHT22;65470;47.324;8.548;2023-07-13T10:58:34;28.20;99.90
32811;DHT22;65470;47.324;8.548;2023-07-13T11:03:54;29.70;99.90
32811;DHT22;65470;47.324;8.548;2023-07-13T11:11:33;30.10;99.90
32811;DHT22;65470;47.324;8.548;2023-07-13T11:14:02;29.80;99.90
32811;DHT22;65470;47.324;8.548;2023-07-13T11:16:42;29.70;99.90
32811;DHT22;65470;47.324;8.548;2023-07-13T11:19:25;29.60;99.90
32811;DHT22;65470;47.324;8.548;2023-07-13T11:24:51;29.00;99.90
32811;DHT22;65470;47.324;8.548;2023-07-13T11:27:41;28.60;99.90
32811;DHT22;65470;47.324;8.548;2023-07-13T11:35:33;28.20;99.90
32811;DHT22;65470;47.324;8.548;2023-07-13T11:38:00;28.40;99.90
32811;DHT22;65470;47.324;8.548;2023-07-13T11:40:27;29.20;99.90
32811;DHT22;65470;47.324;8.548;2023-07-13T11:43:01;30.40;99.90
32811;DHT22;65470;47.324;8.548;2023-07-13T11:45:27;30.80;99.90
32811;DHT22;65470;47.324;8.548;2023-07-13T11:47:54;31.00;99.90
32811;DHT22;65470;47.324;8.548;2023-07-13T11:50:24;31.20;98.50
32811;DHT22;65470;47.324;8.548;2023-07-13T11:52:51;31.00;98.20
32811;DHT22;65470;47.324;8.548;2023-07-13T11:55:21;31.20;98.40
32811;DHT22;65470;47.324;8.548;2023-07-13T11:57:51;32.00;98.20
32811;DHT22;65470;47.324;8.548;2023-07-13T12:00:23;33.00;94.30
32811;DHT22;65470;47.324;8.548;2023-07-13T12:02:54;32.90;95.10
32811;DHT22;65470;47.324;8.548;2023-07-13T12:05:21;32.60;91.10
32811;DHT22;65470;47.324;8.548;2023-07-13T12:07:47;31.90;92.30
32811;DHT22;65470;47.324;8.548;2023-07-13T12:10:29;31.30;93.50
32811;DHT22;65470;47.324;8.548;2023-07-13T12:12:58;30.30;93.70
32811;DHT22;65470;47.324;8.548;2023-07-13T12:15:36;29.70;94.70
32811;DHT22;65470;47.324;8.548;2023-07-13T12:18:03;29.30;98.60
32811;DHT22;65470;47.324;8.548;2023-07-13T12:20:38;29.50;99.90
32811;DHT22;65470;47.324;8.548;2023-07-13T12:23:15;29.70;97.90
32811;DHT22;65470;47.324;8.548;2023-07-13T12:25:46;30.20;95.30
32811;DHT22;65470;47.324;8.548;2023-07-13T12:28:22;30.40;97.10
32811;DHT22;65470;47.324;8.548;2023-07-13T12:30:49;30.30;95.00
32811;DHT22;65470;47.324;8.548;2023-07-13T12:33:16;29.60;96.40
32811;DHT22;65470;47.324;8.548;2023-07-13T12:35:46;29.10;96.20
32811;DHT22;65470;47.324;8.548;2023-07-13T12:38:13;29.50;96.50
32811;DHT22;65470;47.324;8.548;2023-07-13T12:40:39;29.90;99.90
32811;DHT22;65470;47.324;8.548;2023-07-13T12:43:14;30.50;95.80
32811;DHT22;65470;47.324;8.548;2023-07-13T12:46:36;30.70;95.60
32811;DHT22;65470;47.324;8.548;2023-07-13T12:48:43;31.10;94.20
32811;DHT22;65470;47.324;8.548;2023-07-13T12:51:12;31.10;94.50
32811;DHT22;65470;47.324;8.548;2023-07-13T12:53:47;31.10;94.90
32811;DHT22;65470;47.324;8.548;2023-07-13T12:56:21;30.90;96.10
32811;DHT22;65470;47.324;8.548;2023-07-13T12:58:48;30.80;94.70
32811;DHT22;65470;47.324;8.548;2023-07-13T13:01:23;30.80;97.20
32811;DHT22;65470;47.324;8.548;2023-07-13T13:03:52;30.90;94.30
32811;DHT22;65470;47.324;8.548;2023-07-13T13:08:46;29.30;96.00
32811;DHT22;65470;47.324;8.548;2023-07-13T13:11:23;28.60;97.20
32811;DHT22;65470;47.324;8.548;2023-07-13T13:13:49;28.30;98.70
32811;DHT22;65470;47.324;8.548;2023-07-13T13:16:27;28.10;97.40
32811;DHT22;65470;47.324;8.548;2023-07-13T13:18:59;27.70;99.70
32811;DHT22;65470;47.324;8.548;2023-07-13T13:21:25;27.80;99.30
32811;DHT22;65470;47.324;8.548;2023-07-13T13:23:51;27.90;99.10
32811;DHT22;65470;47.324;8.548;2023-07-13T13:26:19;27.80;99.30
32811;DHT22;65470;47.324;8.548;2023-07-13T13:28:45;27.90;99.90
32811;DHT22;65470;47.324;8.548;2023-07-13T13:31:13;27.80;99.90
32811;DHT22;65470;47.324;8.548;2023-07-13T13:33:43;28.10;99.90
32811;DHT22;65470;47.324;8.548;2023-07-13T13:36:22;28.40;99.40
32811;DHT22;65470;47.324;8.548;2023-07-13T13:38:49;28.50;99.90
32811;DHT22;65470;47.324;8.548;2023-07-13T13:41:15;28.50;99.90
32811;DHT22;65470;47.324;8.548;2023-07-13T13:43:42;28.40;99.90
32811;DHT22;65470;47.324;8.548;2023-07-13T13:46:18;28.20;99.90
32811;DHT22;65470;47.324;8.548;2023-07-13T13:48:44;27.90;99.70
32811;DHT22;65470;47.324;8.548;2023-07-13T13:51:21;27.70;99.70
32811;DHT22;65470;47.324;8.548;2023-07-13T13:53:48;27.60;99.90
32811;DHT22;65470;47.324;8.548;2023-07-13T13:56:14;27.50;99.90
32811;DHT22;65470;47.324;8.548;2023-07-13T13:58:40;27.50;99.90
32811;DHT22;65470;47.324;8.548;2023-07-13T14:01:21;27.30;99.90
32811;DHT22;65470;47.324;8.548;2023-07-13T14:03:48;27.40;99.90
32811;DHT22;65470;47.324;8.548;2023-07-13T14:06:16;27.50;99.90
32811;DHT22;65470;47.324;8.548;2023-07-13T14:08:42;27.70;99.90
32811;DHT22;65470;47.324;8.548;2023-07-13T14:11:12;28.40;99.90
32811;DHT22;65470;47.324;8.548;2023-07-13T14:13:43;28.70;99.90
32811;DHT22;65470;47.324;8.548;2023-07-13T14:16:15;28.90;99.90
32811;DHT22;65470;47.324;8.548;2023-07-13T14:18:43;28.80;99.30
32811;DHT22;65470;47.324;8.548;2023-07-13T14:21:18;28.70;99.90
32811;DHT22;65470;47.324;8.548;2023-07-13T14:23:45;28.60;99.30
32811;DHT22;65470;47.324;8.548;2023-07-13T14:26:25;28.60;98.80
32811;DHT22;65470;47.324;8.548;2023-07-13T14:28:54;28.60;99.90
32811;DHT22;65470;47.324;8.548;2023-07-13T14:31:22;28.90;99.90
32811;DHT22;65470;47.324;8.548;2023-07-13T14:33:48;29.30;99.90
32811;DHT22;65470;47.324;8.548;2023-07-13T14:36:31;29.50;99.70
32811;DHT22;65470;47.324;8.548;2023-07-13T14:38:58;29.70;96.70
32811;DHT22;65470;47.324;8.548;2023-07-13T14:41:25;29.70;97.60
32811;DHT22;65470;47.324;8.548;2023-07-13T14:43:51;29.70;99.20
32811;DHT22;65470;47.324;8.548;2023-07-13T14:46:29;29.30;99.90
32811;DHT22;65470;47.324;8.548;2023-07-13T14:51:35;28.60;99.90
32811;DHT22;65470;47.324;8.548;2023-07-13T14:54:04;28.30;99.90
32811;DHT22;65470;47.324;8.548;2023-07-13T14:56:30;28.20;99.90
32811;DHT22;65470;47.324;8.548;2023-07-13T14:58:56;27.90;99.90
32811;DHT22;65470;47.324;8.548;2023-07-13T15:01:22;27.80;99.90
32811;DHT22;65470;47.324;8.548;2023-07-13T15:03:51;27.70;99.90
32811;DHT22;65470;47.324;8.548;2023-07-13T15:06:17;27.60;99.90
32811;DHT22;65470;47.324;8.548;2023-07-13T15:08:44;27.50;99.90
32811;DHT22;65470;47.324;8.548;2023-07-13T15:11:10;27.40;99.90
32811;DHT22;65470;47.324;8.548;2023-07-13T15:13:40;27.20;99.90
32811;DHT22;65470;47.324;8.548;2023-07-13T15:16:18;27.20;99.90
32811;DHT22;65470;47.324;8.548;2023-07-13T15:18:46;27.20;99.90
32811;DHT22;65470;47.324;8.548;2023-07-13T15:21:15;27.50;99.60
32811;DHT22;65470;47.324;8.548;2023-07-13T15:23:43;28.00;99.40
32811;DHT22;65470;47.324;8.548;2023-07-13T15:26:15;28.30;96.60
32811;DHT22;65470;47.324;8.548;2023-07-13T15:28:42;28.50;96.00
32811;DHT22;65470;47.324;8.548;2023-07-13T15:31:22;28.60;94.20
32811;DHT22;65470;47.324;8.548;2023-07-13T15:33:50;28.70;93.10
32811;DHT22;65470;47.324;8.548;2023-07-13T15:36:17;28.80;93.90
32811;DHT22;65470;47.324;8.548;2023-07-13T15:38:44;29.00;94.80
32811;DHT22;65470;47.324;8.548;2023-07-13T15:41:19;29.00;95.90
32811;DHT22;65470;47.324;8.548;2023-07-13T15:43:47;29.00;94.50
32811;DHT22;65470;47.324;8.548;2023-07-13T15:46:13;29.00;93.80
32811;DHT22;65470;47.324;8.548;2023-07-13T15:48:39;29.00;93.90
32811;DHT22;65470;47.324;8.548;2023-07-13T15:51:11;29.00;93.70
32811;DHT22;65470;47.324;8.548;2023-07-13T15:53:38;29.20;93.20
32811;DHT22;65470;47.324;8.548;2023-07-13T15:58:42;28.90;91.10
32811;DHT22;65470;47.324;8.548;2023-07-13T16:01:10;28.70;90.10
32811;DHT22;65470;47.324;8.548;2023-07-13T16:03:36;28.50;88.80
32811;DHT22;65470;47.324;8.548;2023-07-13T16:06:01;28.60;90.40
32811;DHT22;65470;47.324;8.548;2023-07-13T16:08:31;28.60;90.80
32811;DHT22;65470;47.324;8.548;2023-07-13T16:10:58;28.50;91.00
32811;DHT22;65470;47.324;8.548;2023-07-13T16:13:24;28.10;92.10
32811;DHT22;65470;47.324;8.548;2023-07-13T16:15:51;28.00;91.70
32811;DHT22;65470;47.324;8.548;2023-07-13T16:18:17;28.10;91.30
32811;DHT22;65470;47.324;8.548;2023-07-13T16:20:45;28.30;91.20
32811;DHT22;65470;47.324;8.548;2023-07-13T16:23:12;28.20;90.20